sensor_id;sensor_type;location;lat;lon;timestamp;P1;durP1;ratioP1;P2;durP2;ratioP2
78453;SDS011;67750;55.832;49.124;2023-03-26T00:00:08;19.32;;;11.12;;
78453;SDS011;67750;55.832;49.124;2023-03-26T00:05:26;19.42;;;11.65;;
78453;SDS011;67750;55.832;49.124;2023-03-26T00:10:26;19.32;;;11.73;;
78453;SDS011;67750;55.832;49.124;2023-03-26T00:12:55;19.45;;;11.90;;
78453;SDS011;67750;55.832;49.124;2023-03-26T00:15:25;18.62;;;11.40;;
78453;SDS011;67750;55.832;49.124;2023-03-26T00:17:54;18.02;;;11.73;;
78453;SDS011;67750;55.832;49.124;2023-03-26T00:20:24;21.80;;;13.32;;
78453;SDS011;67750;55.832;49.124;2023-03-26T00:22:53;18.35;;;11.22;;
78453;SDS011;67750;55.832;49.124;2023-03-26T00:25:23;19.35;;;11.45;;
78453;SDS011;67750;55.832;49.124;2023-03-26T00:27:52;20.55;;;12.95;;
78453;SDS011;67750;55.832;49.124;2023-03-26T00:30:22;19.85;;;12.28;;
78453;SDS011;67750;55.832;49.124;2023-03-26T00:32:51;20.57;;;13.78;;
78453;SDS011;67750;55.832;49.124;2023-03-26T00:35:21;19.55;;;13.08;;
78453;SDS011;67750;55.832;49.124;2023-03-26T00:37:51;20.23;;;12.68;;
78453;SDS011;67750;55.832;49.124;2023-03-26T00:40:20;21.17;;;12.43;;
78453;SDS011;67750;55.832;49.124;2023-03-26T00:42:50;19.80;;;13.25;;
78453;SDS011;67750;55.832;49.124;2023-03-26T00:45:20;20.97;;;12.78;;
78453;SDS011;67750;55.832;49.124;2023-03-26T00:47:49;23.45;;;13.88;;
78453;SDS011;67750;55.832;49.124;2023-03-26T00:50:19;21.15;;;12.73;;
78453;SDS011;67750;55.832;49.124;2023-03-26T00:52:49;20.68;;;13.25;;
78453;SDS011;67750;55.832;49.124;2023-03-26T00:55:20;20.68;;;12.30;;
78453;SDS011;67750;55.832;49.124;2023-03-26T00:57:49;20.32;;;12.60;;
78453;SDS011;67750;55.832;49.124;2023-03-26T01:00:18;20.97;;;13.28;;
78453;SDS011;67750;55.832;49.124;2023-03-26T01:02:51;23.18;;;13.18;;
78453;SDS011;67750;55.832;49.124;2023-03-26T01:11:02;22.90;;;12.50;;
78453;SDS011;67750;55.832;49.124;2023-03-26T01:13:34;21.40;;;13.05;;
78453;SDS011;67750;55.832;49.124;2023-03-26T01:16:05;22.13;;;12.50;;
78453;SDS011;67750;55.832;49.124;2023-03-26T01:18:36;22.75;;;13.78;;
78453;SDS011;67750;55.832;49.124;2023-03-26T01:21:26;22.05;;;12.88;;
78453;SDS011;67750;55.832;49.124;2023-03-26T01:37:11;25.37;;;14.07;;
78453;SDS011;67750;55.832;49.124;2023-03-26T01:44:59;22.67;;;13.60;;
78453;SDS011;67750;55.832;49.124;2023-03-26T01:47:30;27.55;;;14.68;;
78453;SDS011;67750;55.832;49.124;2023-03-26T01:49:59;23.25;;;13.75;;
78453;SDS011;67750;55.832;49.124;2023-03-26T01:52:30;25.60;;;14.20;;
78453;SDS011;67750;55.832;49.124;2023-03-26T01:55:00;25.12;;;14.70;;
78453;SDS011;67750;55.832;49.124;2023-03-26T02:08:31;25.92;;;14.87;;
78453;SDS011;67750;55.832;49.124;2023-03-26T02:11:20;22.82;;;13.88;;
78453;SDS011;67750;55.832;49.124;2023-03-26T02:13:50;23.10;;;12.90;;
78453;SDS011;67750;55.832;49.124;2023-03-26T02:16:20;23.22;;;13.65;;
78453;SDS011;67750;55.832;49.124;2023-03-26T02:18:49;23.30;;;14.13;;
78453;SDS011;67750;55.832;49.124;2023-03-26T02:21:21;20.92;;;12.03;;
78453;SDS011;67750;55.832;49.124;2023-03-26T02:24:22;21.42;;;14.95;;
78453;SDS011;67750;55.832;49.124;2023-03-26T02:26:43;23.20;;;14.07;;
78453;SDS011;67750;55.832;49.124;2023-03-26T02:29:13;20.82;;;13.18;;
78453;SDS011;67750;55.832;49.124;2023-03-26T02:31:44;21.00;;;12.68;;
78453;SDS011;67750;55.832;49.124;2023-03-26T02:34:14;18.40;;;11.55;;
78453;SDS011;67750;55.832;49.124;2023-03-26T02:37:04;17.50;;;11.08;;
78453;SDS011;67750;55.832;49.124;2023-03-26T02:39:34;18.55;;;11.80;;
78453;SDS011;67750;55.832;49.124;2023-03-26T02:42:05;21.90;;;11.88;;
78453;SDS011;67750;55.832;49.124;2023-03-26T02:44:36;18.07;;;11.55;;
78453;SDS011;67750;55.832;49.124;2023-03-26T02:47:26;21.17;;;12.40;;
78453;SDS011;67750;55.832;49.124;2023-03-26T02:49:57;19.95;;;11.63;;
78453;SDS011;67750;55.832;49.124;2023-03-26T02:52:29;19.40;;;11.95;;
78453;SDS011;67750;55.832;49.124;2023-03-26T02:54:59;18.07;;;11.30;;
78453;SDS011;67750;55.832;49.124;2023-03-26T03:00:19;18.42;;;10.65;;
78453;SDS011;67750;55.832;49.124;2023-03-26T03:03:08;21.05;;;11.65;;
78453;SDS011;67750;55.832;49.124;2023-03-26T03:05:39;19.57;;;11.68;;
78453;SDS011;67750;55.832;49.124;2023-03-26T03:08:30;18.50;;;11.35;;
78453;SDS011;67750;55.832;49.124;2023-03-26T03:11:20;18.65;;;11.40;;
78453;SDS011;67750;55.832;49.124;2023-03-26T03:16:21;20.77;;;11.60;;
78453;SDS011;67750;55.832;49.124;2023-03-26T03:18:51;16.82;;;10.03;;
78453;SDS011;67750;55.832;49.124;2023-03-26T03:24:13;18.20;;;11.22;;
78453;SDS011;67750;55.832;49.124;2023-03-26T03:26:45;18.57;;;11.45;;
78453;SDS011;67750;55.832;49.124;2023-03-26T03:29:36;18.30;;;11.60;;
78453;SDS011;67750;55.832;49.124;2023-03-26T03:32:25;18.42;;;11.22;;
78453;SDS011;67750;55.832;49.124;2023-03-26T03:34:56;18.87;;;11.53;;
78453;SDS011;67750;55.832;49.124;2023-03-26T03:37:26;19.05;;;11.35;;
78453;SDS011;67750;55.832;49.124;2023-03-26T03:42:26;18.27;;;12.03;;
78453;SDS011;67750;55.832;49.124;2023-03-26T03:47:47;19.50;;;11.38;;
78453;SDS011;67750;55.832;49.124;2023-03-26T03:50:18;19.73;;;11.38;;
78453;SDS011;67750;55.832;49.124;2023-03-26T03:52:49;18.65;;;10.98;;
78453;SDS011;67750;55.832;49.124;2023-03-26T03:55:19;19.52;;;11.18;;
78453;SDS011;67750;55.832;49.124;2023-03-26T03:57:51;18.70;;;11.78;;
78453;SDS011;67750;55.832;49.124;2023-03-26T04:00:23;18.52;;;11.55;;
78453;SDS011;67750;55.832;49.124;2023-03-26T04:02:55;19.50;;;11.05;;
78453;SDS011;67750;55.832;49.124;2023-03-26T04:05:26;19.45;;;11.55;;
78453;SDS011;67750;55.832;49.124;2023-03-26T04:07:55;19.25;;;11.03;;
78453;SDS011;67750;55.832;49.124;2023-03-26T04:10:27;19.65;;;11.85;;
78453;SDS011;67750;55.832;49.124;2023-03-26T04:13:17;19.75;;;12.33;;
78453;SDS011;67750;55.832;49.124;2023-03-26T04:16:06;19.35;;;11.43;;
78453;SDS011;67750;55.832;49.124;2023-03-26T04:18:36;18.35;;;11.35;;
78453;SDS011;67750;55.832;49.124;2023-03-26T04:21:08;22.55;;;11.97;;
78453;SDS011;67750;55.832;49.124;2023-03-26T04:23:38;19.17;;;11.15;;
78453;SDS011;67750;55.832;49.124;2023-03-26T04:26:13;19.70;;;11.93;;
78453;SDS011;67750;55.832;49.124;2023-03-26T04:29:03;20.50;;;11.60;;
78453;SDS011;67750;55.832;49.124;2023-03-26T04:31:35;21.97;;;12.68;;
78453;SDS011;67750;55.832;49.124;2023-03-26T04:34:06;22.27;;;12.35;;
78453;SDS011;67750;55.832;49.124;2023-03-26T04:36:39;19.73;;;12.63;;
78453;SDS011;67750;55.832;49.124;2023-03-26T04:39:09;21.57;;;12.47;;
78453;SDS011;67750;55.832;49.124;2023-03-26T04:42:00;22.67;;;12.43;;
78453;SDS011;67750;55.832;49.124;2023-03-26T04:44:31;20.35;;;11.95;;
78453;SDS011;67750;55.832;49.124;2023-03-26T04:47:02;20.17;;;12.00;;
78453;SDS011;67750;55.832;49.124;2023-03-26T04:49:33;19.02;;;12.00;;
78453;SDS011;67750;55.832;49.124;2023-03-26T04:52:03;19.45;;;11.57;;
78453;SDS011;67750;55.832;49.124;2023-03-26T04:54:52;20.65;;;12.05;;
78453;SDS011;67750;55.832;49.124;2023-03-26T04:57:24;19.50;;;12.25;;
78453;SDS011;67750;55.832;49.124;2023-03-26T04:59:55;18.40;;;11.55;;
78453;SDS011;67750;55.832;49.124;2023-03-26T05:02:24;21.62;;;11.83;;
78453;SDS011;67750;55.832;49.124;2023-03-26T05:04:54;19.87;;;11.15;;
78453;SDS011;67750;55.832;49.124;2023-03-26T05:07:25;18.73;;;11.00;;
78453;SDS011;67750;55.832;49.124;2023-03-26T05:09:56;21.12;;;12.20;;
78453;SDS011;67750;55.832;49.124;2023-03-26T05:12:47;22.17;;;12.90;;
78453;SDS011;67750;55.832;49.124;2023-03-26T05:15:19;18.85;;;11.50;;
78453;SDS011;67750;55.832;49.124;2023-03-26T05:18:08;20.08;;;11.55;;
78453;SDS011;67750;55.832;49.124;2023-03-26T05:23:09;20.20;;;11.78;;
78453;SDS011;67750;55.832;49.124;2023-03-26T05:25:40;25.97;;;12.68;;
78453;SDS011;67750;55.832;49.124;2023-03-26T05:28:29;18.77;;;11.78;;
78453;SDS011;67750;55.832;49.124;2023-03-26T05:31:00;22.52;;;12.25;;
78453;SDS011;67750;55.832;49.124;2023-03-26T05:33:32;20.75;;;11.85;;
78453;SDS011;67750;55.832;49.124;2023-03-26T05:36:04;22.30;;;12.05;;
78453;SDS011;67750;55.832;49.124;2023-03-26T05:38:35;21.82;;;12.07;;
78453;SDS011;67750;55.832;49.124;2023-03-26T05:41:06;20.08;;;12.25;;
78453;SDS011;67750;55.832;49.124;2023-03-26T05:43:38;22.32;;;12.55;;
78453;SDS011;67750;55.832;49.124;2023-03-26T05:46:27;20.12;;;11.10;;
78453;SDS011;67750;55.832;49.124;2023-03-26T05:48:57;19.50;;;12.28;;
78453;SDS011;67750;55.832;49.124;2023-03-26T05:51:28;20.05;;;11.73;;
78453;SDS011;67750;55.832;49.124;2023-03-26T05:54:17;19.27;;;11.50;;
78453;SDS011;67750;55.832;49.124;2023-03-26T05:57:07;23.27;;;11.90;;
78453;SDS011;67750;55.832;49.124;2023-03-26T05:59:56;21.25;;;11.97;;
78453;SDS011;67750;55.832;49.124;2023-03-26T06:02:45;20.75;;;11.80;;
78453;SDS011;67750;55.832;49.124;2023-03-26T06:05:35;19.92;;;12.37;;
78453;SDS011;67750;55.832;49.124;2023-03-26T06:08:24;21.25;;;11.45;;
78453;SDS011;67750;55.832;49.124;2023-03-26T06:13:43;21.95;;;11.73;;
78453;SDS011;67750;55.832;49.124;2023-03-26T06:16:13;22.07;;;12.53;;
78453;SDS011;67750;55.832;49.124;2023-03-26T06:18:44;20.72;;;12.63;;
78453;SDS011;67750;55.832;49.124;2023-03-26T06:21:34;21.42;;;12.13;;
78453;SDS011;67750;55.832;49.124;2023-03-26T06:24:23;20.92;;;11.80;;
78453;SDS011;67750;55.832;49.124;2023-03-26T06:26:54;21.15;;;12.58;;
78453;SDS011;67750;55.832;49.124;2023-03-26T06:29:44;22.80;;;13.53;;
78453;SDS011;67750;55.832;49.124;2023-03-26T06:32:15;25.52;;;13.53;;
78453;SDS011;67750;55.832;49.124;2023-03-26T06:34:46;20.82;;;12.47;;
78453;SDS011;67750;55.832;49.124;2023-03-26T06:37:16;20.15;;;12.73;;
78453;SDS011;67750;55.832;49.124;2023-03-26T06:39:46;21.05;;;12.30;;
78453;SDS011;67750;55.832;49.124;2023-03-26T06:42:17;22.07;;;12.15;;
78453;SDS011;67750;55.832;49.124;2023-03-26T06:45:07;18.95;;;11.88;;
78453;SDS011;67750;55.832;49.124;2023-03-26T06:47:56;21.62;;;11.75;;
78453;SDS011;67750;55.832;49.124;2023-03-26T06:50:46;19.07;;;12.03;;
78453;SDS011;67750;55.832;49.124;2023-03-26T06:53:35;21.48;;;11.43;;
78453;SDS011;67750;55.832;49.124;2023-03-26T06:56:24;19.77;;;11.70;;
78453;SDS011;67750;55.832;49.124;2023-03-26T06:59:14;21.02;;;11.97;;
78453;SDS011;67750;55.832;49.124;2023-03-26T07:02:03;20.52;;;11.63;;
78453;SDS011;67750;55.832;49.124;2023-03-26T07:04:52;17.20;;;10.65;;
78453;SDS011;67750;55.832;49.124;2023-03-26T07:07:42;20.57;;;11.50;;
78453;SDS011;67750;55.832;49.124;2023-03-26T07:10:13;17.57;;;10.63;;
78453;SDS011;67750;55.832;49.124;2023-03-26T07:12:45;19.52;;;11.65;;
78453;SDS011;67750;55.832;49.124;2023-03-26T07:15:34;21.82;;;12.18;;
78453;SDS011;67750;55.832;49.124;2023-03-26T07:18:23;21.35;;;11.60;;
78453;SDS011;67750;55.832;49.124;2023-03-26T07:20:54;18.67;;;11.70;;
78453;SDS011;67750;55.832;49.124;2023-03-26T07:23:26;19.00;;;11.12;;
78453;SDS011;67750;55.832;49.124;2023-03-26T07:38:13;16.40;;;9.08;;
78453;SDS011;67750;55.832;49.124;2023-03-26T07:46:50;18.95;;;11.30;;
78453;SDS011;67750;55.832;49.124;2023-03-26T07:49:22;18.73;;;10.50;;
78453;SDS011;67750;55.832;49.124;2023-03-26T07:55:01;15.83;;;9.83;;
78453;SDS011;67750;55.832;49.124;2023-03-26T07:58:29;17.00;;;10.20;;
78453;SDS011;67750;55.832;49.124;2023-03-26T08:06:27;19.80;;;10.48;;
78453;SDS011;67750;55.832;49.124;2023-03-26T08:08:58;18.30;;;10.85;;
78453;SDS011;67750;55.832;49.124;2023-03-26T08:17:10;16.52;;;9.65;;
78453;SDS011;67750;55.832;49.124;2023-03-26T08:19:43;18.10;;;10.23;;
78453;SDS011;67750;55.832;49.124;2023-03-26T08:30:39;17.20;;;10.00;;
78453;SDS011;67750;55.832;49.124;2023-03-26T08:35:58;16.60;;;9.73;;
78453;SDS011;67750;55.832;49.124;2023-03-26T08:38:27;18.05;;;10.78;;
78453;SDS011;67750;55.832;49.124;2023-03-26T09:39:15;19.87;;;10.88;;
78453;SDS011;67750;55.832;49.124;2023-03-26T09:47:03;15.08;;;8.55;;
78453;SDS011;67750;55.832;49.124;2023-03-26T10:09:00;16.70;;;8.48;;
78453;SDS011;67750;55.832;49.124;2023-03-26T10:42:39;13.20;;;7.58;;
78453;SDS011;67750;55.832;49.124;2023-03-26T10:55:33;10.95;;;6.53;;
78453;SDS011;67750;55.832;49.124;2023-03-26T11:00:33;16.62;;;6.45;;
78453;SDS011;67750;55.832;49.124;2023-03-26T11:05:56;12.55;;;6.22;;
78453;SDS011;67750;55.832;49.124;2023-03-26T11:10:59;10.18;;;5.45;;
78453;SDS011;67750;55.832;49.124;2023-03-26T11:27:00;9.70;;;5.67;;
78453;SDS011;67750;55.832;49.124;2023-03-26T11:38:01;11.48;;;6.67;;
78453;SDS011;67750;55.832;49.124;2023-03-26T11:42:59;11.73;;;6.87;;
78453;SDS011;67750;55.832;49.124;2023-03-26T11:45:31;20.23;;;7.53;;
78453;SDS011;67750;55.832;49.124;2023-03-26T11:51:29;13.60;;;7.00;;
78453;SDS011;67750;55.832;49.124;2023-03-26T11:53:26;14.33;;;8.00;;
78453;SDS011;67750;55.832;49.124;2023-03-26T12:01:15;11.18;;;6.70;;
78453;SDS011;67750;55.832;49.124;2023-03-26T12:06:35;13.25;;;7.42;;
78453;SDS011;67750;55.832;49.124;2023-03-26T12:09:14;19.02;;;7.97;;
78453;SDS011;67750;55.832;49.124;2023-03-26T12:11:36;12.03;;;7.92;;
78453;SDS011;67750;55.832;49.124;2023-03-26T12:14:12;14.50;;;7.78;;
78453;SDS011;67750;55.832;49.124;2023-03-26T12:16:38;14.23;;;7.87;;
78453;SDS011;67750;55.832;49.124;2023-03-26T12:21:59;16.17;;;8.25;;
78453;SDS011;67750;55.832;49.124;2023-03-26T12:24:30;18.98;;;9.33;;
78453;SDS011;67750;55.832;49.124;2023-03-26T12:29:30;20.17;;;12.20;;
78453;SDS011;67750;55.832;49.124;2023-03-26T12:34:51;18.95;;;9.65;;
78453;SDS011;67750;55.832;49.124;2023-03-26T12:43:03;20.77;;;10.58;;
78453;SDS011;67750;55.832;49.124;2023-03-26T12:48:24;23.90;;;10.43;;
78453;SDS011;67750;55.832;49.124;2023-03-26T12:56:41;23.30;;;9.80;;
78453;SDS011;67750;55.832;49.124;2023-03-26T13:18:56;16.40;;;10.48;;
78453;SDS011;67750;55.832;49.124;2023-03-26T13:41:20;18.30;;;11.30;;
78453;SDS011;67750;55.832;49.124;2023-03-26T13:58:31;20.90;;;11.73;;
78453;SDS011;67750;55.832;49.124;2023-03-26T14:00:29;27.32;;;12.98;;
78453;SDS011;67750;55.832;49.124;2023-03-26T14:05:50;18.52;;;11.73;;
78453;SDS011;67750;55.832;49.124;2023-03-26T14:34:03;39.73;;;18.25;;
78453;SDS011;67750;55.832;49.124;2023-03-26T14:36:36;32.42;;;17.25;;
78453;SDS011;67750;55.832;49.124;2023-03-26T14:47:15;43.65;;;18.23;;
78453;SDS011;67750;55.832;49.124;2023-03-26T14:54:54;35.08;;;19.40;;
78453;SDS011;67750;55.832;49.124;2023-03-26T15:37:11;22.48;;;10.60;;
78453;SDS011;67750;55.832;49.124;2023-03-26T15:47:51;19.23;;;10.15;;
78453;SDS011;67750;55.832;49.124;2023-03-26T15:56:17;18.87;;;8.78;;
78453;SDS011;67750;55.832;49.124;2023-03-26T16:06:46;16.57;;;8.50;;
78453;SDS011;67750;55.832;49.124;2023-03-26T16:09:49;16.73;;;9.20;;
78453;SDS011;67750;55.832;49.124;2023-03-26T16:17:22;18.25;;;9.25;;
78453;SDS011;67750;55.832;49.124;2023-03-26T16:33:46;18.05;;;9.73;;
78453;SDS011;67750;55.832;49.124;2023-03-26T16:39:40;25.40;;;11.88;;
78453;SDS011;67750;55.832;49.124;2023-03-26T16:44:27;25.80;;;12.60;;
78453;SDS011;67750;55.832;49.124;2023-03-26T16:46:59;22.00;;;12.35;;
78453;SDS011;67750;55.832;49.124;2023-03-26T16:55:42;21.27;;;11.93;;
78453;SDS011;67750;55.832;49.124;2023-03-26T17:11:55;23.62;;;12.40;;
78453;SDS011;67750;55.832;49.124;2023-03-26T17:25:50;23.65;;;9.80;;
78453;SDS011;67750;55.832;49.124;2023-03-26T17:28:53;15.55;;;7.65;;
78453;SDS011;67750;55.832;49.124;2023-03-26T17:33:37;16.05;;;8.65;;
78453;SDS011;67750;55.832;49.124;2023-03-26T17:50:15;11.00;;;5.40;;
78453;SDS011;67750;55.832;49.124;2023-03-26T17:52:48;10.43;;;5.78;;
78453;SDS011;67750;55.832;49.124;2023-03-26T17:58:13;15.48;;;7.17;;
78453;SDS011;67750;55.832;49.124;2023-03-26T18:03:58;16.50;;;7.17;;
78453;SDS011;67750;55.832;49.124;2023-03-26T18:16:59;13.85;;;7.20;;
78453;SDS011;67750;55.832;49.124;2023-03-26T18:19:29;16.48;;;7.35;;
78453;SDS011;67750;55.832;49.124;2023-03-26T18:22:34;16.80;;;7.50;;
78453;SDS011;67750;55.832;49.124;2023-03-26T18:24:34;11.50;;;6.97;;
78453;SDS011;67750;55.832;49.124;2023-03-26T18:33:16;9.75;;;5.72;;
78453;SDS011;67750;55.832;49.124;2023-03-26T18:38:04;13.25;;;6.05;;
78453;SDS011;67750;55.832;49.124;2023-03-26T18:40:38;11.40;;;6.70;;
78453;SDS011;67750;55.832;49.124;2023-03-26T18:43:04;13.78;;;6.33;;
78453;SDS011;67750;55.832;49.124;2023-03-26T18:48:24;14.40;;;6.62;;
78453;SDS011;67750;55.832;49.124;2023-03-26T18:51:25;16.37;;;6.30;;
78453;SDS011;67750;55.832;49.124;2023-03-26T18:53:25;17.10;;;7.92;;
78453;SDS011;67750;55.832;49.124;2023-03-26T18:59:06;14.73;;;7.60;;
78453;SDS011;67750;55.832;49.124;2023-03-26T19:01:37;13.80;;;7.05;;
78453;SDS011;67750;55.832;49.124;2023-03-26T19:04:09;11.15;;;6.58;;
78453;SDS011;67750;55.832;49.124;2023-03-26T19:06:40;10.43;;;6.30;;
78453;SDS011;67750;55.832;49.124;2023-03-26T19:09:12;11.83;;;6.33;;
78453;SDS011;67750;55.832;49.124;2023-03-26T19:11:41;13.43;;;6.15;;
78453;SDS011;67750;55.832;49.124;2023-03-26T19:17:03;10.15;;;5.60;;
78453;SDS011;67750;55.832;49.124;2023-03-26T19:19:34;10.38;;;5.85;;
78453;SDS011;67750;55.832;49.124;2023-03-26T19:22:05;11.08;;;5.12;;
78453;SDS011;67750;55.832;49.124;2023-03-26T19:24:35;8.70;;;4.78;;
78453;SDS011;67750;55.832;49.124;2023-03-26T19:27:05;8.48;;;5.35;;
78453;SDS011;67750;55.832;49.124;2023-03-26T19:29:35;17.55;;;4.97;;
78453;SDS011;67750;55.832;49.124;2023-03-26T19:32:40;7.05;;;4.05;;
78453;SDS011;67750;55.832;49.124;2023-03-26T19:43:04;13.35;;;4.40;;
78453;SDS011;67750;55.832;49.124;2023-03-26T19:45:33;11.55;;;4.65;;
78453;SDS011;67750;55.832;49.124;2023-03-26T19:48:05;9.95;;;4.67;;
78453;SDS011;67750;55.832;49.124;2023-03-26T19:50:34;11.95;;;5.10;;
78453;SDS011;67750;55.832;49.124;2023-03-26T19:58:44;7.75;;;4.85;;
78453;SDS011;67750;55.832;49.124;2023-03-26T20:01:46;10.30;;;4.95;;
78453;SDS011;67750;55.832;49.124;2023-03-26T20:03:46;14.68;;;5.30;;
78453;SDS011;67750;55.832;49.124;2023-03-26T20:06:18;10.25;;;5.15;;
78453;SDS011;67750;55.832;49.124;2023-03-26T20:08:47;9.65;;;5.05;;
78453;SDS011;67750;55.832;49.124;2023-03-26T20:11:52;10.78;;;4.95;;
78453;SDS011;67750;55.832;49.124;2023-03-26T20:19:07;11.22;;;5.80;;
78453;SDS011;67750;55.832;49.124;2023-03-26T20:21:37;10.50;;;5.33;;
78453;SDS011;67750;55.832;49.124;2023-03-26T20:26:56;10.48;;;5.15;;
78453;SDS011;67750;55.832;49.124;2023-03-26T20:29:26;12.47;;;5.30;;
78453;SDS011;67750;55.832;49.124;2023-03-26T20:31:55;9.35;;;5.03;;
78453;SDS011;67750;55.832;49.124;2023-03-26T20:34:25;9.13;;;5.08;;
78453;SDS011;67750;55.832;49.124;2023-03-26T20:36:54;8.45;;;5.30;;
78453;SDS011;67750;55.832;49.124;2023-03-26T20:39:24;10.85;;;5.37;;
78453;SDS011;67750;55.832;49.124;2023-03-26T20:41:54;8.93;;;5.33;;
78453;SDS011;67750;55.832;49.124;2023-03-26T20:44:23;8.05;;;4.78;;
78453;SDS011;67750;55.832;49.124;2023-03-26T20:46:53;10.55;;;5.30;;
78453;SDS011;67750;55.832;49.124;2023-03-26T20:49:24;9.00;;;5.50;;
78453;SDS011;67750;55.832;49.124;2023-03-26T20:51:55;9.98;;;5.75;;
78453;SDS011;67750;55.832;49.124;2023-03-26T20:54:25;10.48;;;6.12;;
78453;SDS011;67750;55.832;49.124;2023-03-26T20:56:57;7.22;;;4.85;;
78453;SDS011;67750;55.832;49.124;2023-03-26T20:59:28;10.32;;;5.87;;
78453;SDS011;67750;55.832;49.124;2023-03-26T21:01:57;10.93;;;5.33;;
78453;SDS011;67750;55.832;49.124;2023-03-26T21:04:27;12.68;;;5.35;;
78453;SDS011;67750;55.832;49.124;2023-03-26T21:06:58;9.33;;;5.17;;
78453;SDS011;67750;55.832;49.124;2023-03-26T21:09:27;9.00;;;5.28;;
78453;SDS011;67750;55.832;49.124;2023-03-26T21:14:48;11.08;;;5.47;;
78453;SDS011;67750;55.832;49.124;2023-03-26T21:17:19;12.33;;;4.65;;
78453;SDS011;67750;55.832;49.124;2023-03-26T21:19:49;7.60;;;4.70;;
78453;SDS011;67750;55.832;49.124;2023-03-26T21:28:03;8.50;;;3.92;;
78453;SDS011;67750;55.832;49.124;2023-03-26T21:30:32;11.05;;;4.70;;
78453;SDS011;67750;55.832;49.124;2023-03-26T21:33:02;7.40;;;4.55;;
78453;SDS011;67750;55.832;49.124;2023-03-26T21:35:32;9.55;;;4.58;;
78453;SDS011;67750;55.832;49.124;2023-03-26T21:38:02;7.67;;;4.40;;
78453;SDS011;67750;55.832;49.124;2023-03-26T21:40:32;8.28;;;3.95;;
78453;SDS011;67750;55.832;49.124;2023-03-26T21:43:02;8.85;;;4.33;;
78453;SDS011;67750;55.832;49.124;2023-03-26T21:45:32;8.15;;;5.03;;
78453;SDS011;67750;55.832;49.124;2023-03-26T21:48:02;8.70;;;4.45;;
78453;SDS011;67750;55.832;49.124;2023-03-26T21:50:32;7.87;;;4.05;;
78453;SDS011;67750;55.832;49.124;2023-03-26T21:53:02;9.65;;;4.08;;
78453;SDS011;67750;55.832;49.124;2023-03-26T21:55:34;7.33;;;4.17;;
78453;SDS011;67750;55.832;49.124;2023-03-26T22:00:55;10.08;;;4.62;;
78453;SDS011;67750;55.832;49.124;2023-03-26T22:06:12;6.80;;;3.83;;
78453;SDS011;67750;55.832;49.124;2023-03-26T22:08:43;6.20;;;4.05;;
78453;SDS011;67750;55.832;49.124;2023-03-26T22:11:13;6.47;;;4.17;;
78453;SDS011;67750;55.832;49.124;2023-03-26T22:13:42;7.70;;;4.22;;
78453;SDS011;67750;55.832;49.124;2023-03-26T22:16:11;7.25;;;4.35;;
78453;SDS011;67750;55.832;49.124;2023-03-26T22:18:42;6.00;;;3.20;;
78453;SDS011;67750;55.832;49.124;2023-03-26T22:21:12;9.90;;;4.40;;
78453;SDS011;67750;55.832;49.124;2023-03-26T22:23:41;7.67;;;4.37;;
78453;SDS011;67750;55.832;49.124;2023-03-26T22:26:12;6.72;;;3.98;;
78453;SDS011;67750;55.832;49.124;2023-03-26T22:28:42;7.17;;;4.22;;
78453;SDS011;67750;55.832;49.124;2023-03-26T22:31:11;7.83;;;4.10;;
78453;SDS011;67750;55.832;49.124;2023-03-26T22:33:40;9.58;;;4.53;;
78453;SDS011;67750;55.832;49.124;2023-03-26T22:36:10;9.10;;;4.72;;
78453;SDS011;67750;55.832;49.124;2023-03-26T22:38:40;10.30;;;4.72;;
78453;SDS011;67750;55.832;49.124;2023-03-26T22:41:09;11.45;;;4.03;;
78453;SDS011;67750;55.832;49.124;2023-03-26T22:43:39;9.83;;;4.35;;
78453;SDS011;67750;55.832;49.124;2023-03-26T22:46:08;7.25;;;4.33;;
78453;SDS011;67750;55.832;49.124;2023-03-26T22:48:38;8.98;;;4.42;;
78453;SDS011;67750;55.832;49.124;2023-03-26T22:51:08;7.85;;;4.00;;
78453;SDS011;67750;55.832;49.124;2023-03-26T22:53:37;10.60;;;4.95;;
78453;SDS011;67750;55.832;49.124;2023-03-26T22:56:07;7.92;;;4.20;;
78453;SDS011;67750;55.832;49.124;2023-03-26T22:58:37;8.48;;;5.33;;
78453;SDS011;67750;55.832;49.124;2023-03-26T23:01:09;7.83;;;4.97;;
78453;SDS011;67750;55.832;49.124;2023-03-26T23:03:38;9.60;;;5.22;;
78453;SDS011;67750;55.832;49.124;2023-03-26T23:06:08;9.00;;;5.50;;
78453;SDS011;67750;55.832;49.124;2023-03-26T23:08:38;17.17;;;6.47;;
78453;SDS011;67750;55.832;49.124;2023-03-26T23:11:09;10.95;;;6.12;;
78453;SDS011;67750;55.832;49.124;2023-03-26T23:13:39;10.08;;;6.00;;
78453;SDS011;67750;55.832;49.124;2023-03-26T23:16:09;12.90;;;6.78;;
78453;SDS011;67750;55.832;49.124;2023-03-26T23:18:39;12.25;;;6.78;;
78453;SDS011;67750;55.832;49.124;2023-03-26T23:23:58;12.13;;;6.80;;
78453;SDS011;67750;55.832;49.124;2023-03-26T23:26:27;11.90;;;7.08;;
78453;SDS011;67750;55.832;49.124;2023-03-26T23:28:58;13.28;;;6.58;;
78453;SDS011;67750;55.832;49.124;2023-03-26T23:31:28;11.45;;;7.05;;
78453;SDS011;67750;55.832;49.124;2023-03-26T23:33:58;12.45;;;6.78;;
78453;SDS011;67750;55.832;49.124;2023-03-26T23:36:27;12.60;;;7.05;;
78453;SDS011;67750;55.832;49.124;2023-03-26T23:38:56;13.65;;;7.60;;
78453;SDS011;67750;55.832;49.124;2023-03-26T23:41:27;12.68;;;7.33;;
78453;SDS011;67750;55.832;49.124;2023-03-26T23:43:57;14.80;;;7.42;;
78453;SDS011;67750;55.832;49.124;2023-03-26T23:46:27;12.60;;;7.45;;
78453;SDS011;67750;55.832;49.124;2023-03-26T23:48:59;12.10;;;8.35;;
78453;SDS011;67750;55.832;49.124;2023-03-26T23:51:29;19.77;;;7.92;;
78453;SDS011;67750;55.832;49.124;2023-03-26T23:53:59;16.00;;;8.18;;
78453;SDS011;67750;55.832;49.124;2023-03-26T23:56:28;16.05;;;9.00;;
78453;SDS011;67750;55.832;49.124;2023-03-26T23:58:58;15.78;;;8.63;;
